createdAt,value
2023-03-19T00:00:44.710Z,18.23
2023-03-19T00:03:11.676Z,17.97
2023-03-19T00:05:38.731Z,21.13
2023-03-19T00:08:06.089Z,19.03
2023-03-19T00:10:33.031Z,18.33
2023-03-19T00:12:59.943Z,16.80
2023-03-19T00:15:26.873Z,18.60
2023-03-19T00:17:54.373Z,20.57
2023-03-19T00:20:22.256Z,21.33
2023-03-19T00:22:49.268Z,17.63
2023-03-19T00:25:16.226Z,17.53
2023-03-19T00:27:44.570Z,22.03
2023-03-19T00:30:12.146Z,16.83
2023-03-19T00:32:39.520Z,15.50
2023-03-19T00:35:08.259Z,21.60
2023-03-19T00:37:36.347Z,16.33
2023-03-19T00:40:04.534Z,15.37
2023-03-19T00:42:32.376Z,22.87
2023-03-19T00:44:59.377Z,17.20
2023-03-19T00:47:27.737Z,13.57
2023-03-19T00:49:54.624Z,17.60
2023-03-19T00:52:21.696Z,16.97
2023-03-19T00:54:48.746Z,17.93
2023-03-19T00:57:15.726Z,15.80
2023-03-19T00:59:42.678Z,17.90
2023-03-19T01:02:09.583Z,16.40
2023-03-19T01:04:36.601Z,16.67
2023-03-19T01:07:03.693Z,11.70
2023-03-19T01:09:31.005Z,12.67
2023-03-19T01:11:57.889Z,14.23
2023-03-19T01:14:24.990Z,14.77
2023-03-19T01:16:51.937Z,14.23
2023-03-19T01:19:21.524Z,16.63
2023-03-19T01:21:49.573Z,18.20
2023-03-19T01:24:17.120Z,16.03
2023-03-19T01:26:44.271Z,14.53
2023-03-19T01:29:11.432Z,16.30
2023-03-19T01:31:38.523Z,12.70
2023-03-19T01:34:06.492Z,14.70
2023-03-19T01:36:33.560Z,15.37
2023-03-19T01:39:00.967Z,14.63
2023-03-19T01:41:27.984Z,10.97
2023-03-19T01:43:54.930Z,15.20
2023-03-19T01:46:33.316Z,13.17
2023-03-19T01:49:07.594Z,16.10
2023-03-19T01:51:40.220Z,15.30
2023-03-19T01:54:12.403Z,16.27
2023-03-19T01:56:43.568Z,11.77
2023-03-19T01:59:22.929Z,17.60
2023-03-19T02:02:16.932Z,15.73
2023-03-19T02:04:47.231Z,14.43
2023-03-19T02:07:14.861Z,14.67
2023-03-19T02:09:42.256Z,10.70
2023-03-19T02:12:10.061Z,12.07
2023-03-19T02:14:37.044Z,13.23
2023-03-19T02:17:04.988Z,11.87
2023-03-19T02:19:43.996Z,14.17
2023-03-19T02:22:12.967Z,16.10
2023-03-19T02:24:52.324Z,19.63
2023-03-19T02:27:19.937Z,11.07
2023-03-19T02:29:49.217Z,17.57
2023-03-19T02:32:16.343Z,12.53
2023-03-19T02:34:44.417Z,13.23
2023-03-19T02:37:26.706Z,11.57
2023-03-19T02:40:13.760Z,15.77
2023-03-19T02:42:41.084Z,13.90
2023-03-19T02:45:08.872Z,12.67
2023-03-19T02:47:35.800Z,13.37
2023-03-19T02:50:02.770Z,13.13
2023-03-19T02:52:29.692Z,12.57
2023-03-19T02:54:56.624Z,11.20
2023-03-19T02:57:23.577Z,12.40
2023-03-19T02:59:50.826Z,13.03
2023-03-19T03:02:18.204Z,12.40
2023-03-19T03:04:45.654Z,12.27
2023-03-19T03:07:13.020Z,11.03
2023-03-19T03:09:40.044Z,15.30
2023-03-19T03:12:08.428Z,12.17
2023-03-19T03:14:36.034Z,14.37
2023-03-19T03:17:03.024Z,11.43
2023-03-19T03:19:30.156Z,13.00
2023-03-19T03:21:57.105Z,17.70
2023-03-19T03:24:24.330Z,11.40
2023-03-19T03:26:51.329Z,10.73
2023-03-19T03:29:18.403Z,12.27
2023-03-19T03:31:45.851Z,14.27
2023-03-19T03:34:12.737Z,13.60
2023-03-19T03:36:39.971Z,12.93
2023-03-19T03:39:07.008Z,11.77
2023-03-19T03:41:33.978Z,11.90
2023-03-19T03:44:01.340Z,10.80
2023-03-19T03:46:28.619Z,14.37
2023-03-19T03:48:57.708Z,11.80
2023-03-19T03:51:24.648Z,13.63
2023-03-19T03:53:51.963Z,15.17
2023-03-19T03:56:18.892Z,11.43
2023-03-19T03:58:46.103Z,11.53
2023-03-19T04:01:16.635Z,10.67
2023-03-19T04:03:44.524Z,11.07
2023-03-19T04:06:17.784Z,10.87
2023-03-19T04:08:45.074Z,13.97
2023-03-19T04:11:12.017Z,12.50
2023-03-19T04:13:39.054Z,8.87
2023-03-19T04:16:08.790Z,10.60
2023-03-19T04:18:36.822Z,14.00
2023-03-19T04:21:05.474Z,12.80
2023-03-19T04:23:32.602Z,17.20
2023-03-19T04:26:05.220Z,16.27
2023-03-19T04:28:32.179Z,12.83
2023-03-19T04:31:04.537Z,12.60
2023-03-19T04:33:32.313Z,12.87
2023-03-19T04:36:00.562Z,15.43
2023-03-19T04:38:27.706Z,13.93
2023-03-19T04:40:56.211Z,16.40
2023-03-19T04:43:24.898Z,16.30
2023-03-19T04:45:52.297Z,13.93
2023-03-19T04:48:19.282Z,13.80
2023-03-19T04:50:47.241Z,16.70
2023-03-19T04:53:14.378Z,18.17
2023-03-19T04:55:41.644Z,12.87
2023-03-19T04:58:09.210Z,16.80
2023-03-19T05:00:36.388Z,15.37
2023-03-19T05:03:03.598Z,13.40
2023-03-19T05:05:31.016Z,12.57
2023-03-19T05:07:58.178Z,15.53
2023-03-19T05:10:25.184Z,16.10
2023-03-19T05:12:52.272Z,14.63
2023-03-19T05:15:19.189Z,15.90
2023-03-19T05:17:46.168Z,12.87
2023-03-19T05:20:13.259Z,17.40
2023-03-19T05:22:40.230Z,14.00
2023-03-19T05:25:07.460Z,13.57
2023-03-19T05:27:34.710Z,14.57
2023-03-19T05:30:01.678Z,16.10
2023-03-19T05:32:29.385Z,13.67
2023-03-19T05:34:56.697Z,11.80
2023-03-19T05:37:23.842Z,13.73
2023-03-19T05:39:51.866Z,11.67
2023-03-19T05:42:18.874Z,13.97
2023-03-19T05:44:45.737Z,18.07
2023-03-19T05:47:12.699Z,13.67
2023-03-19T05:49:39.687Z,10.40
2023-03-19T05:52:07.601Z,13.60
2023-03-19T05:54:34.794Z,12.80
2023-03-19T05:57:03.497Z,11.23
2023-03-19T05:59:31.636Z,12.57
2023-03-19T06:01:58.579Z,15.13
2023-03-19T06:04:25.996Z,10.60
2023-03-19T06:06:53.031Z,15.13
2023-03-19T06:09:20.006Z,13.67
2023-03-19T06:11:46.989Z,14.33
2023-03-19T06:14:14.202Z,11.03
2023-03-19T06:16:41.145Z,14.53
2023-03-19T06:19:08.055Z,12.17
2023-03-19T06:21:35.084Z,12.30
2023-03-19T06:24:02.072Z,12.17
2023-03-19T06:26:29.021Z,14.00
2023-03-19T06:28:56.165Z,15.90
2023-03-19T06:31:24.274Z,12.30
2023-03-19T06:33:51.359Z,15.03
2023-03-19T06:36:18.298Z,19.33
2023-03-19T06:38:45.368Z,18.90
2023-03-19T06:41:12.564Z,18.40
2023-03-19T06:43:41.945Z,14.50
2023-03-19T06:46:11.359Z,19.93
2023-03-19T06:48:38.821Z,15.90
2023-03-19T06:51:06.851Z,17.10
2023-03-19T06:53:33.845Z,20.30
2023-03-19T06:56:01.152Z,16.80
2023-03-19T06:58:28.238Z,15.60
2023-03-19T07:00:55.799Z,15.83
2023-03-19T07:03:23.457Z,14.57
2023-03-19T07:05:53.545Z,17.63
2023-03-19T07:08:20.840Z,12.60
2023-03-19T07:10:47.828Z,15.90
2023-03-19T07:13:14.860Z,12.07
2023-03-19T07:15:41.738Z,12.37
2023-03-19T07:18:08.630Z,16.63
2023-03-19T07:20:36.293Z,18.70
2023-03-19T07:23:03.572Z,13.40
2023-03-19T07:25:30.642Z,11.40
2023-03-19T07:27:57.602Z,14.47
2023-03-19T07:30:24.600Z,12.80
2023-03-19T07:32:51.687Z,16.23
2023-03-19T07:35:18.665Z,14.30
2023-03-19T07:37:45.893Z,13.10
2023-03-19T07:40:13.409Z,12.50
2023-03-19T07:42:40.416Z,12.00
2023-03-19T07:45:08.451Z,11.93
2023-03-19T07:47:35.576Z,10.40
2023-03-19T07:50:02.472Z,25.83
2023-03-19T07:52:29.386Z,10.50
2023-03-19T07:54:56.355Z,12.20
2023-03-19T07:57:25.330Z,72.17
2023-03-19T07:59:52.581Z,36.77
2023-03-19T08:02:22.671Z,18.77
2023-03-19T08:04:50.069Z,12.17
2023-03-19T08:07:17.083Z,13.37
2023-03-19T08:09:44.270Z,12.40
2023-03-19T08:12:11.528Z,10.20
2023-03-19T08:14:38.650Z,10.63
2023-03-19T08:17:05.872Z,11.20
2023-03-19T08:19:33.281Z,14.97
2023-03-19T08:22:00.279Z,13.47
2023-03-19T08:24:28.312Z,12.27
2023-03-19T08:26:57.347Z,25.17
2023-03-19T08:29:26.325Z,85.73
2023-03-19T08:31:54.497Z,43.20
2023-03-19T08:34:22.581Z,22.80
2023-03-19T08:36:49.716Z,30.33
2023-03-19T08:39:17.072Z,20.10
2023-03-19T08:41:44.060Z,15.83
2023-03-19T08:44:11.024Z,18.20
2023-03-19T08:46:38.049Z,12.47
2023-03-19T08:49:05.065Z,13.63
2023-03-19T08:51:31.974Z,9.73
2023-03-19T08:53:58.895Z,9.87
2023-03-19T08:56:25.893Z,8.40
2023-03-19T08:58:52.877Z,21.57
2023-03-19T09:01:19.906Z,35.07
2023-03-19T09:03:46.993Z,31.60
2023-03-19T09:06:16.987Z,12.30
2023-03-19T09:08:44.695Z,20.40
2023-03-19T09:11:12.084Z,28.60
2023-03-19T09:13:39.024Z,10.57
2023-03-19T09:16:07.455Z,7.83
2023-03-19T09:18:35.218Z,8.90
2023-03-19T09:21:03.474Z,9.00
2023-03-19T09:23:30.770Z,7.20
2023-03-19T09:25:57.758Z,8.70
2023-03-19T09:28:24.864Z,7.40
2023-03-19T09:30:52.225Z,8.13
2023-03-19T09:33:21.418Z,7.10
2023-03-19T09:35:53.664Z,8.13
2023-03-19T09:38:22.197Z,7.93
2023-03-19T09:41:07.334Z,8.93
2023-03-19T09:44:34.637Z,7.57
2023-03-19T09:47:33.581Z,9.17
2023-03-19T09:50:13.366Z,8.97
2023-03-19T09:53:20.212Z,10.30
2023-03-19T09:55:54.137Z,34.30
2023-03-19T09:58:24.339Z,18.37
2023-03-19T10:00:53.316Z,9.33
2023-03-19T10:03:57.119Z,8.43
2023-03-19T10:06:31.208Z,7.70
2023-03-19T10:09:29.150Z,6.27
2023-03-19T10:12:45.145Z,6.70
2023-03-19T10:15:30.224Z,5.80
2023-03-19T10:18:09.581Z,6.20
2023-03-19T10:21:17.626Z,8.13
2023-03-19T10:24:00.315Z,8.53
2023-03-19T10:26:35.483Z,6.97
2023-03-19T10:29:09.348Z,8.43
2023-03-19T10:32:04.913Z,7.97
2023-03-19T10:34:38.514Z,6.40
2023-03-19T10:37:12.982Z,6.80
2023-03-19T10:39:43.782Z,10.10
2023-03-19T10:42:33.276Z,6.53
2023-03-19T10:45:27.682Z,6.47
2023-03-19T10:47:57.719Z,7.00
2023-03-19T10:50:53.037Z,6.70
2023-03-19T10:53:33.640Z,6.20
2023-03-19T10:56:04.780Z,6.10
2023-03-19T10:58:36.338Z,6.20
2023-03-19T11:01:12.088Z,7.10
2023-03-19T11:03:56.614Z,6.30
2023-03-19T11:06:36.208Z,6.20
2023-03-19T11:09:09.157Z,7.00
2023-03-19T11:11:42.632Z,6.10
2023-03-19T11:14:24.670Z,5.43
2023-03-19T11:16:56.689Z,6.00
2023-03-19T11:19:28.328Z,6.47
2023-03-19T11:22:14.168Z,6.10
2023-03-19T11:24:44.307Z,5.77
2023-03-19T11:27:11.602Z,5.80
2023-03-19T11:29:43.354Z,5.13
2023-03-19T11:32:56.771Z,5.30
2023-03-19T11:35:53.132Z,5.83
2023-03-19T11:38:32.762Z,5.43
2023-03-19T11:41:11.812Z,6.07
2023-03-19T11:43:58.190Z,5.50
2023-03-19T11:46:45.916Z,6.23
2023-03-19T11:49:32.897Z,5.73
2023-03-19T11:52:18.907Z,5.40
2023-03-19T11:55:12.964Z,5.23
2023-03-19T11:58:00.897Z,5.53
2023-03-19T12:00:41.597Z,5.77
2023-03-19T12:03:36.833Z,6.20
2023-03-19T12:06:39.217Z,5.60
2023-03-19T12:09:38.667Z,5.10
2023-03-19T12:12:16.308Z,5.50
2023-03-19T12:15:05.469Z,4.97
2023-03-19T12:18:00.916Z,7.07
2023-03-19T12:21:00.856Z,7.33
2023-03-19T12:24:02.298Z,5.67
2023-03-19T12:26:40.680Z,4.90
2023-03-19T12:29:26.985Z,5.27
2023-03-19T12:32:32.645Z,5.33
2023-03-19T12:35:05.776Z,5.00
2023-03-19T12:37:43.585Z,6.60
2023-03-19T12:40:39.098Z,5.80
2023-03-19T12:43:24.059Z,5.97
2023-03-19T12:46:12.141Z,6.13
2023-03-19T12:49:23.119Z,5.50
2023-03-19T12:52:26.971Z,5.90
2023-03-19T12:55:22.050Z,6.77
2023-03-19T12:57:58.564Z,5.50
2023-03-19T13:00:58.241Z,6.90
2023-03-19T13:03:39.918Z,7.03
2023-03-19T13:06:16.811Z,6.07
2023-03-19T13:08:59.821Z,5.93
2023-03-19T16:29:09.439Z,14.60
2023-03-19T16:31:46.563Z,15.90
2023-03-19T16:34:34.388Z,10.63
2023-03-19T16:37:01.648Z,9.93
2023-03-19T16:39:34.420Z,7.50
2023-03-19T16:42:16.269Z,9.50
2023-03-19T16:44:44.472Z,9.23
2023-03-19T16:47:14.547Z,10.70
2023-03-19T16:49:41.632Z,13.67
2023-03-19T16:52:18.454Z,12.80
2023-03-19T16:54:45.881Z,12.07
2023-03-19T16:57:15.412Z,10.57
2023-03-19T16:59:42.971Z,9.60
2023-03-19T17:02:18.227Z,12.73
2023-03-19T17:04:46.185Z,11.20
2023-03-19T17:07:13.533Z,8.70
2023-03-19T17:09:40.732Z,10.57
2023-03-19T17:12:14.426Z,9.47
2023-03-19T17:14:41.969Z,7.00
2023-03-19T17:17:20.609Z,10.03
2023-03-19T17:19:48.209Z,10.13
2023-03-19T17:22:15.380Z,10.30
2023-03-19T17:24:42.747Z,11.93
2023-03-19T17:27:11.341Z,12.53
2023-03-19T17:29:38.275Z,15.17
2023-03-19T17:32:14.801Z,14.60
2023-03-19T17:34:41.670Z,13.50
2023-03-19T17:37:14.528Z,10.97
2023-03-19T17:39:42.425Z,15.57
2023-03-19T17:42:22.319Z,11.87
2023-03-19T17:44:49.448Z,13.00
2023-03-19T17:47:18.243Z,11.27
2023-03-19T17:49:46.819Z,14.40
2023-03-19T17:52:19.159Z,23.70
2023-03-19T17:54:46.176Z,16.20
2023-03-19T17:57:15.569Z,18.17
2023-03-19T17:59:42.522Z,19.27
2023-03-19T18:02:36.730Z,21.37
2023-03-19T18:05:04.424Z,21.93
2023-03-19T18:07:31.510Z,20.17
2023-03-19T18:10:00.512Z,21.13
2023-03-19T18:12:30.216Z,23.07
2023-03-19T18:14:59.940Z,25.17
2023-03-19T18:17:27.421Z,25.70
2023-03-19T18:19:54.701Z,26.30
2023-03-19T18:22:21.640Z,25.80
2023-03-19T18:24:48.597Z,30.67
2023-03-19T18:27:15.529Z,23.20
2023-03-19T18:29:42.424Z,21.50
2023-03-19T18:32:18.012Z,18.07
2023-03-19T18:34:45.055Z,20.10
2023-03-19T18:37:17.743Z,18.70
2023-03-19T18:39:45.174Z,19.10
2023-03-19T18:42:13.676Z,18.43
2023-03-19T18:44:40.563Z,17.20
2023-03-19T18:47:16.299Z,19.87
2023-03-19T18:49:43.782Z,18.53
2023-03-19T18:52:18.591Z,15.47
2023-03-19T18:54:46.381Z,16.47
2023-03-19T18:57:14.375Z,16.93
2023-03-19T18:59:41.365Z,17.47
2023-03-19T19:02:31.895Z,18.70
2023-03-19T19:04:58.833Z,19.13
2023-03-19T19:07:25.988Z,17.30
2023-03-19T19:09:52.928Z,40.93
2023-03-19T19:12:20.277Z,40.60
2023-03-19T19:14:47.242Z,39.50
2023-03-19T19:17:21.201Z,31.60
2023-03-19T19:19:48.169Z,18.33
2023-03-19T19:22:17.642Z,14.30
2023-03-19T19:24:45.485Z,15.70
2023-03-19T19:27:19.641Z,14.87
2023-03-19T19:29:46.855Z,14.47
2023-03-19T19:32:26.540Z,12.40
2023-03-19T19:34:53.638Z,12.90
2023-03-19T19:37:23.096Z,14.20
2023-03-19T19:39:51.159Z,14.57
2023-03-19T19:42:21.326Z,65.00
2023-03-19T19:44:58.637Z,75.87
2023-03-19T19:47:26.752Z,26.50
2023-03-19T19:49:53.635Z,15.87
2023-03-19T19:52:20.652Z,17.57
2023-03-19T19:54:47.628Z,19.97
2023-03-19T19:57:21.359Z,18.63
2023-03-19T19:59:50.599Z,19.23
2023-03-19T20:02:28.701Z,18.37
2023-03-19T20:04:56.954Z,17.77
2023-03-19T20:07:24.062Z,17.73
2023-03-19T20:09:51.530Z,17.93
2023-03-19T20:12:26.824Z,16.53
2023-03-19T20:14:54.148Z,17.10
2023-03-19T20:17:21.503Z,15.97
2023-03-19T20:19:48.899Z,13.20
2023-03-19T20:22:16.265Z,14.37
2023-03-19T20:24:43.178Z,14.90
2023-03-19T20:27:24.041Z,15.03
2023-03-19T20:29:51.193Z,14.90
2023-03-19T20:32:36.634Z,13.53
2023-03-19T20:35:06.752Z,14.40
2023-03-19T20:37:34.123Z,22.20
2023-03-19T20:40:01.149Z,35.77
2023-03-19T20:42:31.671Z,19.63
2023-03-19T20:44:59.659Z,14.47
2023-03-19T20:47:26.818Z,12.30
2023-03-19T20:49:53.925Z,12.30
2023-03-19T20:52:21.521Z,14.13
2023-03-19T20:54:48.981Z,14.13
2023-03-19T20:57:21.242Z,17.77
2023-03-19T20:59:48.568Z,13.57
2023-03-19T21:02:26.299Z,15.07
2023-03-19T21:04:53.306Z,16.50
2023-03-19T21:07:29.696Z,14.80
2023-03-19T21:09:58.452Z,14.80
2023-03-19T21:12:31.068Z,17.57
2023-03-19T21:14:59.534Z,13.50
2023-03-19T21:17:28.672Z,13.20
2023-03-19T21:19:56.874Z,13.53
2023-03-19T21:22:29.821Z,12.40
2023-03-19T21:25:06.323Z,12.67
2023-03-19T21:27:35.884Z,14.17
2023-03-19T21:30:05.792Z,16.97
2023-03-19T21:32:32.951Z,14.80
2023-03-19T21:34:59.985Z,13.00
2023-03-19T21:37:26.851Z,12.30
2023-03-19T21:39:53.776Z,17.30
2023-03-19T21:42:22.969Z,13.53
2023-03-19T21:44:57.450Z,15.17
2023-03-19T21:47:25.778Z,13.53
2023-03-19T21:49:52.741Z,15.13
2023-03-19T21:52:21.976Z,14.20
2023-03-19T21:54:49.103Z,14.30
2023-03-19T21:57:17.331Z,15.30
2023-03-19T21:59:45.281Z,15.23
2023-03-19T22:02:27.437Z,15.50
2023-03-19T22:04:54.476Z,17.80
2023-03-19T22:07:21.618Z,14.43
2023-03-19T22:09:48.489Z,13.07
2023-03-19T22:12:37.495Z,13.97
2023-03-19T22:15:06.486Z,11.30
2023-03-19T22:17:33.722Z,14.00
2023-03-19T22:20:01.029Z,12.73
2023-03-19T22:22:27.902Z,11.67
2023-03-19T22:24:59.165Z,14.70
2023-03-19T22:27:26.158Z,11.90
2023-03-19T22:29:53.256Z,12.40
2023-03-19T22:32:20.385Z,12.27
2023-03-19T22:34:47.287Z,10.43
2023-03-19T22:37:29.688Z,9.23
2023-03-19T22:39:57.021Z,10.77
2023-03-19T22:42:26.504Z,12.00
2023-03-19T22:44:54.668Z,11.53
2023-03-19T22:47:24.604Z,12.60
2023-03-19T22:49:52.115Z,10.57
2023-03-19T22:52:19.019Z,11.37
2023-03-19T22:54:46.048Z,11.80
2023-03-19T22:57:17.389Z,9.77
2023-03-19T22:59:44.549Z,9.87
2023-03-19T23:02:14.845Z,8.83
2023-03-19T23:04:42.094Z,9.73
2023-03-19T23:07:12.682Z,12.00
2023-03-19T23:09:39.716Z,10.77
2023-03-19T23:14:36.606Z,9.23
2023-03-19T23:17:19.582Z,11.93
2023-03-19T23:19:46.644Z,9.97
2023-03-19T23:22:16.517Z,15.13
2023-03-19T23:24:44.736Z,13.80
2023-03-19T23:27:25.952Z,12.93
2023-03-19T23:29:53.738Z,10.70
2023-03-19T23:32:20.726Z,12.23
2023-03-19T23:34:59.192Z,13.20
2023-03-19T23:37:28.665Z,14.50
2023-03-19T23:39:56.283Z,12.90
2023-03-19T23:42:29.490Z,11.47
2023-03-19T23:44:59.571Z,12.40
2023-03-19T23:47:28.314Z,13.30
2023-03-19T23:49:55.432Z,16.30
2023-03-19T23:52:22.290Z,11.53
2023-03-19T23:54:49.198Z,14.00
2023-03-19T23:57:17.056Z,11.40
2023-03-19T23:59:47.574Z,13.30
